Time;durP1;ratioP1;P1;durP2;ratioP2;P2;SDS_P1;SDS_P2;PMS_P1;PMS_P2;Temp;Humidity;BMP_temperature;BMP_pressure;BME280_temperature;BME280_humidity;BME280_pressure;Samples;Min_cycle;Max_cycle;Signal;HPM_P1;HPM_P2
2022/04/27 00:01:23;;;;;;;1.40;0.55;;;;;;;;;;6247181;23;20073;-80
2022/04/27 00:03:49;;;;;;;1.27;0.90;;;;;;;;;;6247332;23;20421;-81
2022/04/27 00:06:15;;;;;;;0.90;0.60;;;;;;;;;;6247383;23;20011;-81
2022/04/27 00:08:41;;;;;;;2.47;0.98;;;;;;;;;;6247388;23;20002;-79
2022/04/27 00:11:07;;;;;;;2.35;0.60;;;;;;;;;;6247697;23;20012;-78
2022/04/27 00:13:33;;;;;;;2.40;0.50;;;;;;;;;;6247395;23;20435;-77
2022/04/27 00:16:00;;;;;;;3.47;0.85;;;;;;;;;;6247231;23;19996;-78
2022/04/27 00:18:26;;;;;;;2.30;0.50;;;;;;;;;;6247385;23;19996;-80
2022/04/27 00:20:53;;;;;;;0.90;0.50;;;;;;;;;;6247140;23;20023;-80
2022/04/27 00:23:20;;;;;;;1.30;0.50;;;;;;;;;;6247273;23;20023;-78
2022/04/27 00:25:47;;;;;;;1.25;0.60;;;;;;;;;;6247195;23;20007;-79
2022/04/27 00:28:13;;;;;;;1.10;0.50;;;;;;;;;;6247526;23;20000;-78
2022/04/27 00:30:39;;;;;;;1.65;1.13;;;;;;;;;;6246973;23;20325;-81
2022/04/27 00:33:09;;;;;;;2.00;0.40;;;;;;;;;;6247182;23;20028;-79
2022/04/27 00:35:37;;;;;;;1.58;0.70;;;;;;;;;;6247071;23;20411;-80
2022/04/27 00:38:03;;;;;;;2.70;0.80;;;;;;;;;;6247066;23;20000;-81
2022/04/27 00:40:29;;;;;;;0.70;0.52;;;;;;;;;;6247096;23;20004;-78
2022/04/27 00:42:55;;;;;;;2.75;0.95;;;;;;;;;;6247013;23;20008;-80
2022/04/27 00:45:22;;;;;;;3.13;0.68;;;;;;;;;;6247318;23;20379;-78
2022/04/27 00:47:50;;;;;;;2.90;0.77;;;;;;;;;;6246922;23;20000;-81
2022/04/27 00:50:17;;;;;;;2.88;0.90;;;;;;;;;;6246958;23;20420;-77
2022/04/27 00:52:43;;;;;;;1.42;0.70;;;;;;;;;;6246875;23;20497;-77
2022/04/27 00:55:10;;;;;;;0.85;0.52;;;;;;;;;;6246365;23;20016;-79
2022/04/27 00:57:39;;;;;;;1.15;0.70;;;;;;;;;;6246869;23;20020;-80
2022/04/27 01:00:07;;;;;;;1.10;0.50;;;;;;;;;;6246862;23;20004;-77
2022/04/27 01:02:36;;;;;;;2.33;0.65;;;;;;;;;;6247551;23;20009;-81
2022/04/27 01:05:07;;;;;;;2.70;1.63;;;;;;;;;;6246894;23;20050;-78
2022/04/27 01:07:34;;;;;;;3.83;0.80;;;;;;;;;;6220000;23;20332;-78
2022/04/27 01:10:02;;;;;;;2.20;1.00;;;;;;;;;;6246574;23;20004;-80
2022/04/27 01:12:29;;;;;;;2.72;0.90;;;;;;;;;;6246709;23;20006;-77
2022/04/27 01:14:55;;;;;;;1.40;0.77;;;;;;;;;;6246667;23;20010;-78
2022/04/27 01:17:22;;;;;;;2.05;0.80;;;;;;;;;;6246976;23;20000;-77
2022/04/27 01:19:48;;;;;;;1.70;0.70;;;;;;;;;;6246654;23;20022;-79
2022/04/27 01:22:15;;;;;;;1.10;0.60;;;;;;;;;;6246680;23;20607;-78
2022/04/27 01:24:42;;;;;;;2.38;0.65;;;;;;;;;;6246661;23;20054;-79
2022/04/27 01:27:08;;;;;;;2.33;0.68;;;;;;;;;;6246559;23;20008;-80
2022/04/27 01:29:34;;;;;;;1.77;0.90;;;;;;;;;;6246461;23;20027;-78
2022/04/27 01:32:01;;;;;;;1.02;0.68;;;;;;;;;;6246774;23;19997;-80
2022/04/27 01:34:28;;;;;;;2.55;0.70;;;;;;;;;;6220013;23;20004;-79
2022/04/27 01:36:54;;;;;;;1.48;0.68;;;;;;;;;;6246569;23;20000;-80
2022/04/27 01:39:24;;;;;;;2.33;0.80;;;;;;;;;;6219637;23;20034;-79
2022/04/27 01:41:50;;;;;;;1.13;0.60;;;;;;;;;;6246471;23;20028;-79
2022/04/27 01:44:19;;;;;;;0.75;0.50;;;;;;;;;;6246459;23;19997;-80
2022/04/27 01:46:45;;;;;;;1.38;0.80;;;;;;;;;;6246537;23;20032;-78
2022/04/27 01:49:11;;;;;;;1.77;0.77;;;;;;;;;;6246431;23;20001;-80
2022/04/27 01:54:22;;;;;;;1.05;0.55;;;;;;;;;;6246302;23;20108;-79
2022/04/27 01:56:50;;;;;;;1.35;0.65;;;;;;;;;;6246334;23;20000;-78
2022/04/27 01:59:16;;;;;;;1.08;0.60;;;;;;;;;;6246324;23;20008;-79
2022/04/27 02:01:42;;;;;;;2.40;1.20;;;;;;;;;;6246335;23;20078;-78
2022/04/27 02:04:09;;;;;;;2.20;0.70;;;;;;;;;;6246285;23;20075;-77
2022/04/27 02:06:35;;;;;;;3.83;1.13;;;;;;;;;;6246241;23;19997;-78
2022/04/27 02:09:02;;;;;;;1.33;0.80;;;;;;;;;;6246271;23;20004;-80
2022/04/27 02:11:28;;;;;;;1.73;0.80;;;;;;;;;;6219570;23;20324;-79
2022/04/27 02:13:55;;;;;;;2.42;0.80;;;;;;;;;;6246201;23;20001;-80
2022/04/27 02:16:24;;;;;;;2.78;0.98;;;;;;;;;;6246248;23;20101;-80
2022/04/27 02:18:51;;;;;;;2.00;1.05;;;;;;;;;;6219699;23;20006;-78
2022/04/27 02:21:17;;;;;;;1.77;0.57;;;;;;;;;;6246260;23;20000;-78
2022/04/27 02:23:44;;;;;;;2.95;0.80;;;;;;;;;;6246159;23;20033;-80
2022/04/27 02:26:11;;;;;;;2.08;0.90;;;;;;;;;;6246155;23;20386;-78
2022/04/27 02:28:37;;;;;;;3.35;0.95;;;;;;;;;;6246147;23;20004;-78
2022/04/27 02:31:03;;;;;;;5.32;0.85;;;;;;;;;;6246131;23;20110;-79
2022/04/27 02:33:30;;;;;;;1.90;0.70;;;;;;;;;;6246124;23;20006;-78
2022/04/27 02:35:59;;;;;;;1.60;0.70;;;;;;;;;;6219286;23;20087;-79
2022/04/27 02:38:27;;;;;;;1.95;0.77;;;;;;;;;;6246063;23;20004;-80
2022/04/27 02:40:54;;;;;;;1.58;0.70;;;;;;;;;;6246271;23;20000;-77
2022/04/27 02:43:21;;;;;;;2.25;1.05;;;;;;;;;;6246113;23;20001;-79
2022/04/27 02:45:48;;;;;;;2.20;1.50;;;;;;;;;;6246076;23;20347;-77
2022/04/27 02:48:14;;;;;;;1.00;0.70;;;;;;;;;;6246076;23;20004;-78
2022/04/27 02:53:28;;;;;;;3.08;0.90;;;;;;;;;;6246109;23;20031;-78
2022/04/27 02:55:54;;;;;;;1.67;0.80;;;;;;;;;;6245829;23;20088;-78
2022/04/27 02:58:20;;;;;;;1.17;0.60;;;;;;;;;;6246059;23;20005;-78
2022/04/27 03:00:47;;;;;;;2.40;0.70;;;;;;;;;;6245973;23;19999;-78
2022/04/27 03:03:13;;;;;;;2.00;0.70;;;;;;;;;;6246063;23;19996;-79
2022/04/27 03:05:40;;;;;;;3.38;0.80;;;;;;;;;;6245969;23;20075;-80
2022/04/27 03:08:07;;;;;;;1.80;0.70;;;;;;;;;;6246060;23;20072;-79
2022/04/27 03:10:33;;;;;;;2.80;0.80;;;;;;;;;;6245961;23;20015;-78
2022/04/27 03:12:59;;;;;;;2.22;0.70;;;;;;;;;;6245963;23;20000;-78
2022/04/27 03:15:27;;;;;;;1.90;0.70;;;;;;;;;;6246002;23;20058;-79
2022/04/27 03:20:38;;;;;;;2.65;1.55;;;;;;;;;;6247906;23;20344;-78
2022/04/27 03:23:04;;;;;;;6.20;1.42;;;;;;;;;;6247879;23;20031;-78
2022/04/27 03:25:30;;;;;;;5.18;2.25;;;;;;;;;;6247767;23;20054;-79
2022/04/27 03:27:56;;;;;;;7.35;4.15;;;;;;;;;;6247798;23;20031;-79
2022/04/27 03:30:22;;;;;;;2.08;1.30;;;;;;;;;;6247652;23;20000;-78
2022/04/27 03:32:48;;;;;;;3.45;1.38;;;;;;;;;;6247869;23;20011;-78
2022/04/27 03:35:14;;;;;;;3.10;1.20;;;;;;;;;;6247725;23;20003;-79
2022/04/27 03:37:41;;;;;;;2.75;1.33;;;;;;;;;;6248022;23;20003;-79
2022/04/27 03:40:09;;;;;;;3.17;1.23;;;;;;;;;;6247603;23;20428;-77
2022/04/27 03:42:40;;;;;;;4.85;1.40;;;;;;;;;;6247338;23;20027;-77
2022/04/27 03:45:06;;;;;;;4.22;1.10;;;;;;;;;;6247544;23;20000;-78
2022/04/27 03:47:32;;;;;;;8.73;2.83;;;;;;;;;;6247582;23;20047;-79
2022/04/27 03:50:04;;;;;;;9.90;3.85;;;;;;;;;;6247531;23;20334;-79
2022/04/27 03:52:33;;;;;;;2.78;1.52;;;;;;;;;;6247515;23;20079;-80
2022/04/27 03:55:02;;;;;;;3.08;1.50;;;;;;;;;;6220471;23;20020;-79
2022/04/27 03:57:28;;;;;;;44.35;29.55;;;;;;;;;;6220442;23;20091;-79
2022/04/27 03:59:55;;;;;;;45.80;32.08;;;;;;;;;;6247399;23;20003;-79
2022/04/27 04:02:21;;;;;;;6.68;4.43;;;;;;;;;;6247168;23;20545;-79
2022/04/27 04:04:47;;;;;;;6.32;3.53;;;;;;;;;;6247494;23;20000;-79
2022/04/27 04:07:14;;;;;;;7.22;2.17;;;;;;;;;;6246741;23;20003;-79
2022/04/27 04:09:40;;;;;;;6.63;2.22;;;;;;;;;;6247022;23;20309;-78
2022/04/27 04:12:07;;;;;;;2.88;1.58;;;;;;;;;;6247528;23;20000;-78
2022/04/27 04:14:33;;;;;;;2.63;1.48;;;;;;;;;;6246972;23;20030;-79
2022/04/27 04:17:00;;;;;;;3.13;1.85;;;;;;;;;;6219916;23;20004;-79
2022/04/27 04:19:28;;;;;;;5.70;1.52;;;;;;;;;;6220223;23;20004;-79
2022/04/27 04:21:56;;;;;;;4.28;1.45;;;;;;;;;;6220195;23;20051;-80
2022/04/27 04:24:22;;;;;;;3.55;1.17;;;;;;;;;;6246916;23;20428;-78
2022/04/27 04:29:33;;;;;;;2.13;0.95;;;;;;;;;;6246526;23;20050;-80
2022/04/27 04:32:00;;;;;;;2.53;0.90;;;;;;;;;;6246666;23;20075;-80
2022/04/27 04:34:26;;;;;;;3.33;1.50;;;;;;;;;;6220185;23;20343;-80
2022/04/27 04:36:52;;;;;;;4.13;1.30;;;;;;;;;;6247047;23;20007;-80
2022/04/27 04:39:18;;;;;;;3.25;1.10;;;;;;;;;;6247093;23;20003;-80
2022/04/27 04:41:44;;;;;;;3.42;1.00;;;;;;;;;;6246811;23;19996;-79
2022/04/27 04:44:10;;;;;;;3.47;1.13;;;;;;;;;;6246629;23;19997;-80
2022/04/27 04:46:36;;;;;;;4.82;1.83;;;;;;;;;;6246841;23;20019;-77
2022/04/27 04:49:06;;;;;;;2.55;1.63;;;;;;;;;;6246651;23;20328;-78
2022/04/27 04:51:32;;;;;;;4.25;1.48;;;;;;;;;;6246437;23;20000;-78
2022/04/27 04:53:58;;;;;;;1.70;1.08;;;;;;;;;;6246692;23;20001;-80
2022/04/27 04:56:25;;;;;;;7.43;6.55;;;;;;;;;;6246782;23;19996;-79
2022/04/27 04:58:51;;;;;;;8.35;5.82;;;;;;;;;;6246472;23;19996;-78
2022/04/27 05:01:17;;;;;;;12.85;3.65;;;;;;;;;;6246308;23;20493;-79
2022/04/27 05:03:43;;;;;;;9.77;2.08;;;;;;;;;;6220230;23;20004;-80
2022/04/27 05:06:09;;;;;;;2.83;1.15;;;;;;;;;;6246540;23;20000;-78
2022/04/27 05:08:35;;;;;;;3.42;1.27;;;;;;;;;;6194718;23;20073;-78
2022/04/27 05:11:01;;;;;;;4.00;1.45;;;;;;;;;;6246305;23;20039;-79
2022/04/27 05:13:27;;;;;;;4.25;1.55;;;;;;;;;;6245380;23;20053;-78
2022/04/27 05:15:54;;;;;;;3.50;1.38;;;;;;;;;;6245703;23;20024;-80
2022/04/27 05:18:20;;;;;;;4.60;1.52;;;;;;;;;;6246626;23;20003;-78
2022/04/27 05:20:46;;;;;;;4.20;1.48;;;;;;;;;;6246526;23;20071;-78
2022/04/27 05:23:12;;;;;;;1.77;1.00;;;;;;;;;;6246494;23;20424;-80
2022/04/27 05:25:38;;;;;;;4.85;2.40;;;;;;;;;;6246428;23;20328;-79
2022/04/27 05:28:05;;;;;;;4.93;1.00;;;;;;;;;;6246037;23;20443;-80
2022/04/27 05:33:16;;;;;;;;;;;;;;;;;;6244429;23;20015;-80
2022/04/27 05:35:43;;;;;;;1.90;0.90;;;;;;;;;;6243562;23;19900;-78
2022/04/27 05:38:09;;;;;;;2.90;1.10;;;;;;;;;;6243445;23;20002;-78
2022/04/27 05:40:36;;;;;;;2.00;0.88;;;;;;;;;;6216298;23;20486;-78
2022/04/27 05:43:07;;;;;;;4.22;1.20;;;;;;;;;;6242141;23;20367;-77
2022/04/27 05:45:33;;;;;;;4.38;1.70;;;;;;;;;;6242691;23;20008;-74
2022/04/27 05:48:00;;;;;;;4.43;1.70;;;;;;;;;;6243655;23;20004;-78
2022/04/27 05:50:26;;;;;;;4.88;1.98;;;;;;;;;;6243062;23;20435;-78
2022/04/27 05:52:54;;;;;;;6.63;2.50;;;;;;;;;;6242539;23;20451;-76
2022/04/27 05:55:20;;;;;;;6.03;2.15;;;;;;;;;;6243404;23;20031;-78
2022/04/27 05:57:47;;;;;;;4.72;2.33;;;;;;;;;;6243540;23;20008;-78
2022/04/27 06:00:13;;;;;;;6.10;3.42;;;;;;;;;;6216209;23;20391;-77
2022/04/27 06:02:40;;;;;;;6.22;2.75;;;;;;;;;;6243325;23;20043;-78
2022/04/27 06:05:07;;;;;;;12.13;9.65;;;;;;;;;;6243475;23;20007;-77
2022/04/27 06:07:36;;;;;;;11.75;6.05;;;;;;;;;;6243120;23;19997;-77
2022/04/27 06:10:11;;;;;;;13.50;7.88;;;;;;;;;;6243624;23;20043;-78
2022/04/27 06:12:47;;;;;;;12.27;8.60;;;;;;;;;;6242941;23;20015;-77
2022/04/27 06:15:13;;;;;;;12.35;7.30;;;;;;;;;;6243726;23;20031;-79
2022/04/27 06:17:40;;;;;;;7.35;5.60;;;;;;;;;;6243411;23;20000;-79
2022/04/27 06:20:06;;;;;;;9.27;4.70;;;;;;;;;;6243509;23;20079;-81
2022/04/27 06:22:32;;;;;;;8.65;3.78;;;;;;;;;;6243043;23;20075;-79
2022/04/27 06:24:58;;;;;;;6.50;2.33;;;;;;;;;;6243705;23;20479;-79
2022/04/27 06:27:24;;;;;;;3.63;1.80;;;;;;;;;;6243446;23;20046;-80
2022/04/27 06:29:50;;;;;;;3.92;1.90;;;;;;;;;;6243181;23;20046;-79
2022/04/27 06:32:17;;;;;;;5.15;2.65;;;;;;;;;;6243206;23;20058;-79
2022/04/27 06:34:43;;;;;;;4.78;1.85;;;;;;;;;;6243192;23;20459;-79
2022/04/27 06:37:09;;;;;;;2.38;1.80;;;;;;;;;;6243329;23;20038;-82
2022/04/27 06:39:38;;;;;;;4.78;1.80;;;;;;;;;;6243113;23;20394;-79
2022/04/27 06:42:04;;;;;;;6.00;1.88;;;;;;;;;;6216680;23;20008;-79
2022/04/27 06:44:30;;;;;;;5.68;1.75;;;;;;;;;;6242858;23;20011;-79
2022/04/27 06:46:59;;;;;;;6.93;4.10;;;;;;;;;;6242684;23;20323;-74
2022/04/27 06:49:25;;;;;;;10.05;5.45;;;;;;;;;;6242781;23;20000;-80
2022/04/27 06:51:51;;;;;;;9.77;5.18;;;;;;;;;;6242748;23;20007;-80
2022/04/27 06:54:17;;;;;;;6.82;3.63;;;;;;;;;;6244354;23;20016;-81
2022/04/27 06:56:43;;;;;;;5.45;2.40;;;;;;;;;;6244734;23;20000;-81
2022/04/27 06:59:10;;;;;;;9.48;5.57;;;;;;;;;;6244941;23;20050;-78
2022/04/27 07:01:36;;;;;;;9.57;3.88;;;;;;;;;;6245213;23;20012;-79
2022/04/27 07:04:08;;;;;;;19.40;8.65;;;;;;;;;;6244935;23;20072;-80
2022/04/27 07:06:34;;;;;;;33.38;14.20;;;;;;;;;;6244896;23;20000;-80
2022/04/27 07:09:01;;;;;;;62.70;25.55;;;;;;;;;;6244926;23;19996;-77
2022/04/27 07:11:27;;;;;;;118.28;48.60;;;;;;;;;;6245502;23;20004;-79
2022/04/27 07:13:56;;;;;;;149.48;62.83;;;;;;;;;;6244349;23;20134;-80
2022/04/27 07:16:22;;;;;;;116.85;44.10;;;;;;;;;;6245356;23;20023;-81
2022/04/27 07:19:06;;;;;;;159.40;63.78;;;;;;;;;;6244484;23;19992;-81
2022/04/27 07:21:32;;;;;;;151.48;55.63;;;;;;;;;;6245067;23;20007;-79
2022/04/27 07:24:02;;;;;;;161.50;63.13;;;;;;;;;;6245202;23;20427;-79
2022/04/27 07:26:28;;;;;;;134.18;51.35;;;;;;;;;;6245372;23;20000;-79
2022/04/27 07:28:57;;;;;;;69.38;27.13;;;;;;;;;;6244765;23;20004;-79
2022/04/27 07:31:23;;;;;;;52.67;21.77;;;;;;;;;;6245283;23;20007;-79
2022/04/27 07:33:50;;;;;;;60.75;25.77;;;;;;;;;;6244775;23;20067;-80
2022/04/27 07:36:16;;;;;;;62.25;24.63;;;;;;;;;;6245059;23;20487;-77
2022/04/27 07:38:42;;;;;;;49.30;18.63;;;;;;;;;;6244846;23;20331;-79
2022/04/27 07:41:09;;;;;;;78.80;31.30;;;;;;;;;;6244882;23;20008;-80
2022/04/27 07:43:35;;;;;;;187.75;65.60;;;;;;;;;;6245003;23;20074;-79
2022/04/27 07:46:03;;;;;;;100.20;36.60;;;;;;;;;;6245088;23;20010;-78
2022/04/27 07:48:32;;;;;;;12.30;5.57;;;;;;;;;;6244775;23;20000;-79
2022/04/27 07:51:01;;;;;;;78.85;28.88;;;;;;;;;;6244774;23;20008;-81
2022/04/27 07:53:27;;;;;;;66.75;24.38;;;;;;;;;;6244711;23;20003;-79
2022/04/27 07:55:53;;;;;;;59.00;20.85;;;;;;;;;;6244502;23;20016;-81
2022/04/27 07:58:19;;;;;;;10.23;4.40;;;;;;;;;;6245039;23;20004;-81
2022/04/27 08:00:48;;;;;;;35.15;13.15;;;;;;;;;;6244887;23;20004;-81
2022/04/27 08:03:17;;;;;;;36.03;13.77;;;;;;;;;;6244628;23;19996;-81
2022/04/27 08:05:43;;;;;;;67.65;24.35;;;;;;;;;;6244650;23;20005;-80
2022/04/27 08:08:09;;;;;;;72.82;25.90;;;;;;;;;;6244659;23;20323;-81
2022/04/27 08:10:36;;;;;;;70.05;21.95;;;;;;;;;;6244853;23;20416;-81
2022/04/27 08:13:02;;;;;;;236.80;74.22;;;;;;;;;;6244488;23;20011;-82
2022/04/27 08:15:28;;;;;;;190.77;57.70;;;;;;;;;;6244984;23;20000;-82
2022/04/27 08:17:58;;;;;;;161.23;53.00;;;;;;;;;;6244604;23;19996;-81
2022/04/27 08:23:11;;;;;;;74.82;24.25;;;;;;;;;;6244474;23;20094;-80
2022/04/27 08:25:37;;;;;;;44.10;14.45;;;;;;;;;;6244726;23;20448;-78
2022/04/27 08:28:06;;;;;;;46.45;14.38;;;;;;;;;;6244531;23;20035;-81
2022/04/27 08:30:35;;;;;;;60.53;19.50;;;;;;;;;;6244417;23;20008;-81
2022/04/27 08:33:01;;;;;;;12.40;5.45;;;;;;;;;;6244334;23;20075;-80
2022/04/27 08:35:33;;;;;;;12.90;5.18;;;;;;;;;;6244537;23;20081;-81
2022/04/27 08:38:00;;;;;;;31.55;9.70;;;;;;;;;;6244066;23;19996;-81
2022/04/27 08:40:26;;;;;;;45.08;15.20;;;;;;;;;;6244305;23;20075;-82
2022/04/27 08:42:53;;;;;;;75.20;22.17;;;;;;;;;;6244260;23;20011;-82
2022/04/27 08:45:20;;;;;;;32.80;10.23;;;;;;;;;;6244312;23;20004;-81
2022/04/27 08:47:46;;;;;;;11.30;3.78;;;;;;;;;;6244568;23;20008;-78
2022/04/27 08:50:17;;;;;;;177.13;58.70;;;;;;;;;;6243907;23;20038;-81
2022/04/27 08:52:43;;;;;;;99.00;33.15;;;;;;;;;;6217234;23;20052;-79
2022/04/27 08:55:10;;;;;;;55.00;18.10;;;;;;;;;;6244377;23;20016;-80
2022/04/27 08:57:46;;;;;;;17.20;4.72;;;;;;;;;;6244129;23;20004;-80
2022/04/27 09:00:13;;;;;;;15.10;3.97;;;;;;;;;;6244064;23;20003;-78
2022/04/27 09:02:39;;;;;;;36.00;11.68;;;;;;;;;;6244480;23;20049;-82
2022/04/27 09:05:15;;;;;;;13.80;5.25;;;;;;;;;;6243995;23;20000;-81
2022/04/27 09:07:42;;;;;;;45.03;13.90;;;;;;;;;;6244201;23;20026;-82
2022/04/27 09:10:09;;;;;;;22.45;6.55;;;;;;;;;;6216978;23;20020;-81
2022/04/27 09:12:38;;;;;;;14.48;5.32;;;;;;;;;;6244198;23;20075;-82
2022/04/27 09:15:05;;;;;;;11.32;3.10;;;;;;;;;;6244325;23;20000;-80
2022/04/27 09:23:02;;;;;;;14.60;4.05;;;;;;;;;;6243704;23;20019;-82
2022/04/27 09:25:35;;;;;;;6.45;2.10;;;;;;;;;;6216249;23;20004;-82
2022/04/27 09:28:02;;;;;;;19.58;7.40;;;;;;;;;;6244751;23;20331;-80
2022/04/27 09:30:29;;;;;;;14.30;4.70;;;;;;;;;;6243401;23;20004;-80
2022/04/27 09:32:57;;;;;;;56.03;22.05;;;;;;;;;;6244379;23;20004;-80
2022/04/27 09:35:32;;;;;;;26.92;9.35;;;;;;;;;;6243757;23;20008;-83
2022/04/27 09:38:11;;;;;;;12.90;4.13;;;;;;;;;;6243629;23;20003;-82
2022/04/27 09:40:58;;;;;;;10.93;2.65;;;;;;;;;;6243811;23;20014;-81
2022/04/27 09:43:41;;;;;;;9.10;2.60;;;;;;;;;;6243385;23;20031;-84
2022/04/27 09:46:17;;;;;;;12.10;3.13;;;;;;;;;;6243890;23;20052;-82
2022/04/27 09:48:47;;;;;;;6.22;2.45;;;;;;;;;;6243599;23;20008;-82
2022/04/27 09:51:20;;;;;;;10.60;1.73;;;;;;;;;;6243318;23;20030;-81
2022/04/27 09:53:47;;;;;;;7.15;1.92;;;;;;;;;;6242892;23;20000;-82
2022/04/27 09:56:14;;;;;;;8.00;1.70;;;;;;;;;;6216215;23;20082;-85
2022/04/27 09:58:44;;;;;;;13.82;5.40;;;;;;;;;;6216889;23;20011;-81
2022/04/27 10:01:13;;;;;;;11.77;3.25;;;;;;;;;;6243927;23;20486;-80
2022/04/27 10:03:40;;;;;;;9.50;2.58;;;;;;;;;;6243516;23;20000;-82
2022/04/27 10:06:07;;;;;;;9.43;2.17;;;;;;;;;;6243529;23;19996;-81
2022/04/27 10:08:39;;;;;;;11.68;4.05;;;;;;;;;;6243059;23;20010;-83
2022/04/27 10:11:09;;;;;;;9.52;3.00;;;;;;;;;;6242799;23;20455;-79
2022/04/27 10:13:36;;;;;;;8.98;3.47;;;;;;;;;;6241564;23;20015;-81
2022/04/27 10:16:04;;;;;;;9.70;2.40;;;;;;;;;;6243717;23;19996;-81
2022/04/27 10:18:31;;;;;;;12.20;5.25;;;;;;;;;;6243460;23;20007;-83
2022/04/27 10:20:57;;;;;;;10.07;3.05;;;;;;;;;;6243408;23;20007;-83
2022/04/27 10:23:24;;;;;;;6.50;2.33;;;;;;;;;;6242938;23;20004;-81
2022/04/27 10:26:09;;;;;;;13.23;3.03;;;;;;;;;;6243131;23;20004;-84
2022/04/27 10:28:43;;;;;;;21.85;2.40;;;;;;;;;;6242836;23;20015;-82
2022/04/27 10:31:10;;;;;;;7.72;1.85;;;;;;;;;;6242928;23;20011;-81
2022/04/27 10:33:46;;;;;;;14.95;3.28;;;;;;;;;;6215805;23;20012;-81
2022/04/27 10:36:30;;;;;;;5.35;1.50;;;;;;;;;;6243792;23;20000;-83
2022/04/27 10:39:15;;;;;;;8.85;1.90;;;;;;;;;;6215709;23;20005;-86
2022/04/27 10:41:49;;;;;;;6.30;1.48;;;;;;;;;;6241893;23;20004;-85
2022/04/27 10:44:18;;;;;;;7.43;1.75;;;;;;;;;;6215948;23;20008;-85
2022/04/27 10:47:07;;;;;;;8.15;1.90;;;;;;;;;;6216149;23;20039;-86
2022/04/27 10:49:33;;;;;;;8.45;2.10;;;;;;;;;;6214707;23;20016;-84
2022/04/27 10:52:06;;;;;;;10.23;1.90;;;;;;;;;;6242820;23;20001;-81
2022/04/27 10:54:33;;;;;;;11.10;1.95;;;;;;;;;;6214843;23;20454;-81
2022/04/27 10:57:18;;;;;;;6.95;1.45;;;;;;;;;;6243315;23;20932;-83
2022/04/27 10:59:47;;;;;;;7.85;1.80;;;;;;;;;;6242969;23;20099;-82
2022/04/27 11:02:35;;;;;;;3.78;1.10;;;;;;;;;;6216666;23;20057;-79
2022/04/27 11:05:05;;;;;;;11.15;2.53;;;;;;;;;;6243373;23;20008;-81
2022/04/27 11:07:49;;;;;;;10.15;1.65;;;;;;;;;;6243056;23;20069;-79
2022/04/27 11:10:16;;;;;;;8.02;1.42;;;;;;;;;;6243363;23;20047;-82
2022/04/27 11:12:46;;;;;;;6.50;2.30;;;;;;;;;;6242904;23;20003;-81
2022/04/27 11:15:14;;;;;;;7.05;1.70;;;;;;;;;;6242862;23;20008;-81
2022/04/27 11:17:41;;;;;;;6.30;2.00;;;;;;;;;;6242446;23;19996;-81
2022/04/27 11:20:43;;;;;;;11.98;2.55;;;;;;;;;;6242920;23;20020;-82
2022/04/27 11:23:20;;;;;;;11.05;2.38;;;;;;;;;;6120617;23;20423;-82
2022/04/27 11:25:50;;;;;;;7.68;2.70;;;;;;;;;;6119734;23;20430;-83
2022/04/27 11:28:17;;;;;;;13.50;2.30;;;;;;;;;;6120544;23;20006;-81
2022/04/27 11:30:44;;;;;;;12.70;7.15;;;;;;;;;;6151334;23;20012;-81
2022/04/27 11:33:16;;;;;;;9.82;2.13;;;;;;;;;;6216483;23;20008;-82
2022/04/27 11:35:49;;;;;;;7.95;2.42;;;;;;;;;;6243118;23;20008;-83
2022/04/27 11:38:19;;;;;;;8.00;1.98;;;;;;;;;;6242221;23;20011;-81
2022/04/27 11:40:45;;;;;;;7.10;1.95;;;;;;;;;;6244419;23;20003;-80
2022/04/27 11:43:13;;;;;;;6.65;1.90;;;;;;;;;;6245413;23;20031;-82
2022/04/27 11:45:39;;;;;;;9.80;2.28;;;;;;;;;;6245847;23;20001;-80
2022/04/27 11:48:09;;;;;;;10.23;2.40;;;;;;;;;;6245595;23;20111;-81
2022/04/27 11:50:37;;;;;;;13.25;4.95;;;;;;;;;;6218234;23;20106;-83
2022/04/27 11:53:07;;;;;;;10.15;1.85;;;;;;;;;;6244647;23;20004;-83
2022/04/27 11:55:34;;;;;;;5.03;1.67;;;;;;;;;;6245705;23;20012;-80
2022/04/27 11:58:00;;;;;;;6.63;1.63;;;;;;;;;;6244932;23;20007;-80
2022/04/27 12:00:27;;;;;;;9.02;3.03;;;;;;;;;;6246269;23;20004;-82
2022/04/27 12:02:54;;;;;;;9.45;2.33;;;;;;;;;;6245369;23;20004;-83
2022/04/27 12:05:30;;;;;;;11.48;2.05;;;;;;;;;;6246106;23;20011;-81
2022/04/27 12:07:56;;;;;;;10.15;2.00;;;;;;;;;;6245528;23;20003;-81
2022/04/27 12:10:22;;;;;;;7.43;1.45;;;;;;;;;;6245888;23;20011;-81
2022/04/27 12:12:49;;;;;;;10.45;1.67;;;;;;;;;;6245650;23;20063;-80
2022/04/27 12:15:16;;;;;;;6.47;1.45;;;;;;;;;;6218902;23;20079;-80
2022/04/27 12:17:44;;;;;;;6.38;1.38;;;;;;;;;;6245882;23;20018;-80
2022/04/27 12:20:22;;;;;;;15.20;4.90;;;;;;;;;;6245432;23;20004;-81
2022/04/27 12:22:54;;;;;;;12.20;3.72;;;;;;;;;;6246177;23;20026;-80
2022/04/27 12:25:20;;;;;;;16.42;5.60;;;;;;;;;;6245285;23;20007;-80
2022/04/27 12:27:47;;;;;;;6.60;2.20;;;;;;;;;;6245564;23;20000;-81
2022/04/27 12:30:18;;;;;;;12.20;2.95;;;;;;;;;;6245016;23;20011;-80
2022/04/27 12:32:44;;;;;;;7.53;1.92;;;;;;;;;;6245974;23;20394;-80
2022/04/27 12:37:55;;;;;;;7.65;2.95;;;;;;;;;;6245763;23;20020;-81
2022/04/27 12:40:22;;;;;;;9.52;1.98;;;;;;;;;;6245481;23;20064;-81
2022/04/27 12:43:01;;;;;;;11.15;3.22;;;;;;;;;;6245553;23;20331;-83
2022/04/27 12:45:27;;;;;;;8.45;3.90;;;;;;;;;;6244776;23;20054;-82
2022/04/27 12:47:53;;;;;;;4.43;0.90;;;;;;;;;;6245242;23;19999;-81
2022/04/27 12:50:20;;;;;;;10.00;3.47;;;;;;;;;;6245142;23;20000;-81
2022/04/27 12:52:47;;;;;;;9.85;2.03;;;;;;;;;;6245043;23;20011;-84
2022/04/27 12:55:14;;;;;;;10.43;1.67;;;;;;;;;;6244146;23;20472;-82
2022/04/27 12:57:44;;;;;;;11.07;2.47;;;;;;;;;;6244440;23;20332;-80
2022/04/27 13:00:11;;;;;;;14.73;4.55;;;;;;;;;;6216642;23;20007;-81
2022/04/27 13:02:38;;;;;;;11.40;3.95;;;;;;;;;;6244911;23;20031;-80
2022/04/27 13:05:05;;;;;;;12.20;3.30;;;;;;;;;;6245064;23;19996;-82
2022/04/27 13:07:31;;;;;;;7.97;1.90;;;;;;;;;;6245330;23;20011;-83
2022/04/27 13:12:43;;;;;;;6.15;1.38;;;;;;;;;;6245484;23;20062;-82
2022/04/27 13:15:10;;;;;;;4.10;1.20;;;;;;;;;;6218609;23;20013;-80
2022/04/27 13:17:37;;;;;;;7.53;1.63;;;;;;;;;;6245392;23;20008;-81
2022/04/27 13:20:04;;;;;;;7.03;1.77;;;;;;;;;;6244534;23;20007;-80
2022/04/27 13:22:30;;;;;;;3.72;1.30;;;;;;;;;;6244769;23;20027;-81
2022/04/27 13:24:56;;;;;;;4.65;1.35;;;;;;;;;;6244953;23;20000;-80
2022/04/27 13:27:24;;;;;;;4.05;0.80;;;;;;;;;;6244869;23;20349;-80
2022/04/27 13:29:50;;;;;;;6.18;1.00;;;;;;;;;;6245038;23;20000;-81
2022/04/27 13:32:16;;;;;;;12.30;4.30;;;;;;;;;;6245195;23;20031;-79
2022/04/27 13:34:43;;;;;;;11.10;3.50;;;;;;;;;;6245966;23;20004;-80
2022/04/27 13:37:09;;;;;;;12.73;3.95;;;;;;;;;;6245885;23;20443;-81
2022/04/27 13:39:35;;;;;;;5.00;1.42;;;;;;;;;;6245919;23;20440;-80
2022/04/27 13:42:01;;;;;;;4.43;1.10;;;;;;;;;;6245859;23;20005;-80
2022/04/27 13:44:31;;;;;;;4.90;1.88;;;;;;;;;;6218722;23;20384;-80
2022/04/27 13:46:57;;;;;;;4.75;1.10;;;;;;;;;;6246106;23;20000;-80
2022/04/27 13:49:23;;;;;;;10.73;1.65;;;;;;;;;;6246212;23;20000;-80
2022/04/27 13:51:50;;;;;;;2.95;0.80;;;;;;;;;;6245683;23;20004;-81
2022/04/27 13:54:17;;;;;;;2.33;0.68;;;;;;;;;;6218735;23;20050;-80
2022/04/27 13:56:43;;;;;;;3.17;1.10;;;;;;;;;;6245906;23;20032;-80
2022/04/27 13:59:12;;;;;;;3.53;0.90;;;;;;;;;;6246135;23;20004;-80
2022/04/27 14:01:41;;;;;;;7.15;1.95;;;;;;;;;;6243987;23;20000;-80
2022/04/27 14:04:10;;;;;;;3.95;0.70;;;;;;;;;;6244491;23;20420;-80
2022/04/27 14:06:39;;;;;;;2.25;0.70;;;;;;;;;;6244551;23;20071;-80
2022/04/27 14:09:08;;;;;;;5.35;1.27;;;;;;;;;;6244594;23;20317;-82
2022/04/27 14:14:18;;;;;;;2.30;0.80;;;;;;;;;;6244615;23;20015;-81
2022/04/27 14:19:30;;;;;;;6.38;1.38;;;;;;;;;;6244456;23;20066;-81
2022/04/27 14:21:58;;;;;;;3.08;0.70;;;;;;;;;;6244176;23;20486;-81
2022/04/27 14:24:24;;;;;;;5.13;0.90;;;;;;;;;;6244290;23;20005;-81
2022/04/27 14:26:50;;;;;;;5.72;1.25;;;;;;;;;;6244430;23;20035;-81
2022/04/27 14:29:16;;;;;;;6.05;1.50;;;;;;;;;;6245949;23;20008;-80
2022/04/27 14:31:42;;;;;;;4.32;1.23;;;;;;;;;;6245896;23;20015;-81
2022/04/27 14:34:09;;;;;;;4.60;1.30;;;;;;;;;;6246631;23;19996;-80
2022/04/27 14:36:35;;;;;;;6.13;1.02;;;;;;;;;;6245759;23;20435;-81
2022/04/27 14:39:01;;;;;;;5.85;1.17;;;;;;;;;;6245457;23;20019;-81
2022/04/27 14:41:27;;;;;;;7.30;1.27;;;;;;;;;;6245484;23;20332;-81
2022/04/27 14:43:53;;;;;;;6.00;1.10;;;;;;;;;;6219151;23;20004;-81
2022/04/27 14:46:19;;;;;;;4.75;1.35;;;;;;;;;;6218857;23;20051;-80
2022/04/27 14:48:47;;;;;;;8.55;1.70;;;;;;;;;;6245924;23;20130;-81
2022/04/27 14:51:13;;;;;;;3.85;1.00;;;;;;;;;;6245563;23;20004;-80
2022/04/27 14:53:39;;;;;;;9.43;1.48;;;;;;;;;;6246026;23;19996;-80
2022/04/27 14:56:05;;;;;;;6.93;1.00;;;;;;;;;;6218727;23;20371;-80
2022/04/27 14:58:32;;;;;;;4.40;1.35;;;;;;;;;;6245818;23;20004;-80
2022/04/27 15:00:59;;;;;;;6.35;1.27;;;;;;;;;;6245949;23;19996;-80
2022/04/27 15:03:28;;;;;;;4.25;0.88;;;;;;;;;;6245821;23;20004;-81
2022/04/27 15:05:56;;;;;;;5.97;1.02;;;;;;;;;;6245881;23;19996;-80
2022/04/27 15:08:22;;;;;;;8.27;1.75;;;;;;;;;;6245802;23;20028;-80
2022/04/27 15:10:48;;;;;;;3.53;1.20;;;;;;;;;;6245923;23;20080;-79
2022/04/27 15:13:15;;;;;;;7.32;1.77;;;;;;;;;;6245841;23;20047;-80
2022/04/27 15:15:41;;;;;;;8.25;1.58;;;;;;;;;;6247340;23;20000;-81